Tulcea, Tulcea Airport (LRTC)

NameTulcea Airport
CityTulcea
CountryRomania
ICAOLRTC
IATATCE
Altitude19 m
CoordinatesGoogle Map
Live Air TrafficLiveATC.net
METARLRTC 061500Z AUTO 19009KT 9999 NCD 03/M03 Q1022
2019-12-06 15:00:00 Wind: South (190°) 4.63 m/s - Visibility: > 10000 m - Temperature: 3 °C - Dew point: -3 °C - Humidity: 65.1% - Pressure: 1022 hPa

Sorry, no flights used the airport in this database.